Flight Track Log - Related Links

Times and Time Zones

All times are in EDT time to prevent confusion due to time zone crossing. See the EJA929 flight status page for this flight to view local times or setup timezone preferences in your user account.


Time Position Orientation Groundspeed Altitude Reporting Facility
EDT Latitude Longitude Course Direction KTS MPH feet Rate Location/Type
Mon 01:48:11 PM 47.5092 -122.2861 152° Southeast 197 227 1,200  Level Seattle Center
Mon 01:49:35 PM 47.4367 -122.2283 152° Southeast 207 238 5,000 2,938 Climbing Seattle Center
Mon 01:50:36 PM 47.3725 -122.2094 169° South 233 268 8,300 3,049 Climbing Seattle Center
Mon 01:51:37 PM 47.3019 -122.1886 169° South 258 297 11,200 2,557 Climbing Seattle Center
Mon 01:52:38 PM 47.2261 -122.1667 169° South 279 321 13,500 2,066 Climbing Seattle Center
Mon 01:53:39 PM 47.1344 -122.1389 168° South 314 361 15,400 1,820 Climbing Seattle Center
Mon 01:54:40 PM 47.0489 -122.1700 194° South 333 383 17,200 1,707 Climbing Seattle Center
Mon 01:55:42 PM 46.9678 -122.2367 209° Southwest 349 402 18,900 1,707 Climbing Seattle Center
Mon 01:56:43 PM 46.8719 -122.2403 181° South 353 406 20,700 1,770 Climbing Seattle Center
Mon 01:57:44 PM 46.7736 -122.2239 173° South 358 412 22,500 1,820 Climbing Seattle Center
Mon 01:58:45 PM 46.6736 -122.2078 174° South 364 419 24,400 1,967 Climbing Seattle Center
Mon 01:59:46 PM 46.5733 -122.1897 173° South 366 421 26,500 2,066 Climbing Seattle Center
Mon 02:00:47 PM 46.4522 -122.1689 173° South 367 422 28,600 1,869 Climbing Seattle Center
Mon 02:01:48 PM 46.3486 -122.1531 174° South 376 433 30,300 1,770 Climbing Seattle Center
Mon 02:02:49 PM 46.2450 -122.1367 174° South 378 435 32,200 1,967 Climbing Seattle Center
Mon 02:03:50 PM 46.1439 -122.1228 175° South 376 433 34,300 1,918 Climbing Seattle Center
Mon 02:04:51 PM 46.0419 -122.1064 174° South 373 429 36,100 1,574 Climbing Seattle Center
Mon 02:05:52 PM 45.9408 -122.0886 173° South 369 425 37,500 1,171 Climbing Seattle Center
Mon 02:06:54 PM 45.8383 -122.0731 174° South 371 427 38,500 976 Climbing Seattle Center
Mon 02:07:55 PM 45.7314 -122.0564 174° South 383 441 39,500 984 Climbing Seattle Center
Mon 02:08:56 PM 45.6219 -122.0397 174° South 394 453 40,500 738 Climbing Seattle Center
Mon 02:09:57 PM 45.5128 -122.0219 173° South 397 457 41,000 246 Climbing Seattle Center
Mon 02:10:58 PM 45.3758 -122.0019 174° South 411 473 41,000  Level Seattle Center
Mon 02:11:59 PM 45.2581 -121.9828 173° South 423 487 41,000  Level Seattle Center
Mon 02:13:00 PM 45.1394 -121.9653 174° South 427 491 41,000  Level Seattle Center
Mon 02:14:01 PM 45.0219 -121.9467 174° South 426 490 41,000  Level Seattle Center
Mon 02:15:02 PM 44.9017 -121.9294 174° South 429 494 41,000  Level Seattle Center
Mon 02:16:04 PM 44.7822 -121.9108 174° South 432 497 41,000  Level Seattle Center
Mon 02:17:05 PM 44.6717 -121.8942 174° South 429 494 41,000  Level Seattle Center
Mon 02:18:06 PM 44.5544 -121.8769 174° South 427 491 41,000  Level Seattle Center
Mon 02:19:07 PM 44.4122 -121.8553 174° South 431 496 41,000  Level Seattle Center
Mon 02:20:08 PM 44.2928 -121.8386 174° South 433 498 41,000  Level Seattle Center
Mon 02:21:09 PM 44.1742 -121.8206 174° South 431 496 41,000  Level Seattle Center
Mon 02:22:10 PM 44.0564 -121.8039 174° South 429 494 41,000  Level Seattle Center
Mon 02:23:11 PM 43.9375 -121.7864 174° South 431 496 41,000  Level Seattle Center
Mon 02:24:13 PM 43.8064 -121.7667 174° South 436 502 41,000  Level Seattle Center
Mon 02:25:14 PM 43.6872 -121.7514 175° South 435 501 41,000  Level Seattle Center
Mon 02:26:15 PM 43.5675 -121.7328 174° South 433 498 41,000  Level Seattle Center
Mon 02:27:16 PM 43.4483 -121.7156 174° South 432 497 41,000  Level Seattle Center
Mon 02:28:17 PM 43.3283 -121.6981 174° South 433 498 41,000  Level Seattle Center
Mon 02:29:19 PM 43.2081 -121.6811 174° South 435 501 41,000  Level Seattle Center
Mon 02:30:20 PM 43.0869 -121.6642 174° South 436 502 41,000  Level Seattle Center
Mon 02:31:21 PM 42.9650 -121.6472 174° South 440 506 41,000  Level Seattle Center
Mon 02:32:22 PM 42.8189 -121.6244 173° South 440 506 41,000  Level Seattle Center
Mon 02:33:24 PM 42.6972 -121.6100 175° South 438 504 41,000  Level Seattle Center
Mon 02:34:25 PM 42.5753 -121.5903 173° South 439 505 41,000  Level Seattle Center
Mon 02:35:26 PM 42.4522 -121.5744 175° South 444 511 41,000  Level Seattle Center
Mon 02:36:27 PM 42.3289 -121.5578 174° South 442 509 41,000  Level Seattle Center
Mon 02:37:28 PM 42.2067 -121.5406 174° South 440 506 41,000  Level Seattle Center
Mon 02:38:30 PM 42.0833 -121.5239 174° South 441 507 41,000  Level Seattle Center
Mon 02:39:31 PM 41.9592 -121.5075 174° South 443 510 41,000  Level Seattle Center
Mon 02:40:32 PM 41.8350 -121.4892 174° South 445 512 41,000  Level Seattle Center
Mon 02:41:33 PM 41.7108 -121.4739 175° South 447 514 41,000  Level Seattle Center
Mon 02:42:35 PM 41.5914 -121.4578 174° South 434 499 41,000  Level Seattle Center
Mon 02:43:36 PM 41.4681 -121.4411 174° South 439 505 41,000  Level Seattle Center
Mon 02:44:37 PM 41.3436 -121.4239 174° South 447 514 41,000  Level Seattle Center
Mon 02:45:38 PM 41.1933 -121.4033 174° South 450 518 41,000  Level Seattle Center
Mon 02:46:40 PM 41.0694 -121.3875 174° South 449 517 41,000  Level Seattle Center
Mon 02:47:15 PM 40.9994 -121.3736 171° South 450 518 41,000  Level Oakland Center
Mon 02:48:17 PM 40.8758 -121.3572 174° South 447 514 41,000  Level Oakland Center
Mon 02:49:19 PM 40.7464 -121.3414 175° South 450 518 41,000  Level Oakland Center
Mon 02:50:21 PM 40.6233 -121.3236 174° South 445 512 41,000  Level Oakland Center
Mon 02:51:23 PM 40.5039 -121.3083 174° South 442 509 41,000  Level Oakland Center
Mon 02:52:24 PM 40.3533 -121.2900 175° South 449 517 41,000  Level Oakland Center
Mon 02:53:26 PM 40.2278 -121.2739 174° South 450 518 41,000  Level Oakland Center
Mon 02:54:28 PM 40.1022 -121.2575 174° South 452 520 41,000  Level Oakland Center
Mon 02:55:30 PM 39.9756 -121.2419 175° South 454 522 41,000  Level Oakland Center
Mon 02:56:32 PM 39.8494 -121.2244 174° South 454 522 41,000  Level Oakland Center
Mon 02:57:34 PM 39.7225 -121.2081 174° South 455 524 41,000  Level Oakland Center
Mon 02:58:35 PM 39.5944 -121.1933 175° South 460 529 41,000  Level Oakland Center
Mon 02:59:37 PM 39.4517 -121.1739 174° South 459 528 41,000  Level Oakland Center
Mon 03:00:39 PM 39.3253 -121.1575 174° South 457 526 41,000  Level Oakland Center
Mon 03:01:41 PM 39.1981 -121.1419 175° South 458 527 41,000  Level Oakland Center
Mon 03:02:43 PM 39.0708 -121.1269 175° South 458 527 41,000  Level Oakland Center
Mon 03:03:44 PM 38.9417 -121.1097 174° South 461 531 41,000  Level Oakland Center
Mon 03:04:46 PM 38.8133 -121.0939 175° South 462 532 41,000  Level Oakland Center
Mon 03:05:48 PM 38.6581 -121.0731 174° South 461 531 41,000  Level Oakland Center
Mon 03:06:50 PM 38.5247 -121.0578 175° South 469 540 41,000  Level Oakland Center
Mon 03:07:52 PM 38.3928 -121.0433 175° South 467 537 41,000  Level Oakland Center
Mon 03:08:53 PM 38.2619 -121.0272 174° South 467 537 41,000  Level Oakland Center
Mon 03:09:55 PM 38.1322 -121.0111 174° South 467 537 41,000  Level Oakland Center
Mon 03:10:57 PM 38.0019 -120.9931 174° South 469 540 41,000  Level Oakland Center
Mon 03:11:59 PM 37.8711 -120.9725 173° South 471 542 41,000  Level Oakland Center
Mon 03:13:01 PM 37.7394 -120.9508 173° South 475 547 41,000  Level Oakland Center
Mon 03:14:03 PM 37.6089 -120.9297 173° South 473 544 41,000 -242 Level Oakland Center
Mon 03:15:05 PM 37.4522 -120.9056 173° South 472 543 40,500 -1,512 Descending Oakland Center
Mon 03:16:06 PM 37.3264 -120.8847 172° South 460 529 37,900 -2,634 Descending Oakland Center
Mon 03:17:08 PM 37.1961 -120.8642 173° South 468 539 35,100 -2,710 Descending Oakland Center
Mon 03:18:10 PM 37.0647 -120.8442 173° South 474 545 32,300 -2,903 Descending Oakland Center
Mon 03:19:12 PM 36.9144 -120.8194 173° South 488 562 29,100 -2,903 Descending Oakland Center
Mon 03:20:14 PM 36.7806 -120.7978 173° South 487 560 26,300 -2,710 Descending Oakland Center
Mon 03:21:16 PM 36.6522 -120.7775 173° South 472 543 23,500 -2,732 Descending Oakland Center
Mon 03:22:17 PM 36.5322 -120.7575 172° South 440 506 20,700 -1,707 Descending Oakland Center
Mon 03:23:19 PM 36.4164 -120.7392 173° South 424 488 20,000 -871 Descending Oakland Center
Mon 03:24:21 PM 36.3019 -120.7172 171° South 418 481 18,900 -1,694 Descending Oakland Center
Mon 03:25:23 PM 36.1614 -120.6972 173° South 421 484 16,500 -2,129 Descending Oakland Center
Mon 03:26:25 PM 36.0539 -120.6786 172° South 395 455 14,500 -1,984 Descending Oakland Center
Mon 03:27:27 PM 35.9494 -120.6631 173° South 380 437 12,400 -1,935 Descending Oakland Center
Mon 03:28:29 PM 35.8594 -120.6517 174° South 332 382 10,500 -1,707 Descending Oakland Center
Mon 03:29:30 PM 35.7803 -120.6422 174° South 297 342 8,900 -1,707 Descending Oakland Center
Mon 03:30:32 PM 35.7058 -120.6322 174° South 276 318 7,000 -968 Descending Oakland Center
Mon 03:31:34 PM 35.6192 -120.6286 178° South 264 304 6,900 -48 Descending Oakland Center
Mon 03:32:36 PM 35.5469 -120.6317 182° South 261 300 6,900  Level Oakland Center
Mon 03:33:38 PM 35.4739 -120.6333 181° South 264 304 6,900 -407 Level Oakland Center
Mon 03:34:34 PM 35.4017 -120.6364 182° South 267 307 6,100 -1,047 Descending Los Angeles Center
Mon 03:35:04 PM 35.3775 -120.6339 175° South 264 304 5,400 -1,612 Descending Los Angeles Center
Mon 03:35:41 PM 35.3217 -120.6356 181° South 256 295 4,300 -1,891 Descending Los Angeles Center
Mon 03:36:36 PM 35.2658 -120.6375 182° South 230 265 2,500 -1,172 Descending Los Angeles Center
Mon 03:37:08 PM 35.2442 -120.6169 142° Southeast 206 237 2,600 -128 Climbing Los Angeles Center
Mon 03:38:10 PM 35.2133 -120.5703 129° Southeast 183 211 2,300 -435 Descending Los Angeles Center
Mon 03:39:12 PM 35.1900 -120.6106 235° Southwest 181 208 1,700 -581 Descending Los Angeles Center
Mon 03:41:00 PM 35.2373 -120.6426 North  Level Estimated

Login

Don't have an account? Register now (free) for customized features, flight alerts, and more!